Terminal Aerodrome Forecast
Issued by NWS Upton, NY

Current Version | Previous Version | Text Only | Print | Product List | Glossary On
Versions: 1 2 3 4 5 6 7 8 9 10 11 12 13 14 15 16 17 18 19 20 21 22 23 24 25 26 27 28 29 30 31 32 33 34 35 36 37 38 39 40 41 42 43 44 45 46 47 48 49 50
000
FTUS41 KOKX 210949 AAP
TAFLGA
TAF AMD
KLGA 210949Z 2110/2212 15005KT 4SM BR OVC004
     FM211400 15005KT 4SM BR OVC006
     FM211600 18007KT P6SM BKN015
     FM211900 19009KT P6SM BKN025
     FM212100 19008KT P6SM BKN035
     FM220500 21004KT 6SM BR SCT008 BKN040
     FM220800 25004KT P6SM BKN040=

USA.gov is the U.S. government's official web portal to all federal, state and local government web resources and services.